sensor_id;sensor_type;location;lat;lon;timestamp;pressure;altitude;pressure_sealevel;temperature;humidity
42411;BME280;28056;51.112;0.984;2023-11-18T00:01:34;101161.22;;;11.72;77.80
42411;BME280;28056;51.112;0.984;2023-11-18T00:04:02;101159.17;;;11.46;78.50
42411;BME280;28056;51.112;0.984;2023-11-18T00:06:30;101168.89;;;11.75;79.12
42411;BME280;28056;51.112;0.984;2023-11-18T00:08:56;101163.89;;;10.86;84.51
42411;BME280;28056;51.112;0.984;2023-11-18T00:11:24;101161.76;;;11.72;84.23
42411;BME280;28056;51.112;0.984;2023-11-18T00:13:51;101164.18;;;11.51;84.50
42411;BME280;28056;51.112;0.984;2023-11-18T00:16:18;101162.71;;;10.49;89.79
42411;BME280;28056;51.112;0.984;2023-11-18T00:18:45;101164.17;;;11.12;87.79
42411;BME280;28056;51.112;0.984;2023-11-18T00:21:13;101162.85;;;10.59;90.15
42411;BME280;28056;51.112;0.984;2023-11-18T00:23:41;101162.89;;;11.19;89.47
42411;BME280;28056;51.112;0.984;2023-11-18T00:26:08;101159.26;;;11.23;91.12
42411;BME280;28056;51.112;0.984;2023-11-18T00:28:36;101156.62;;;10.78;93.74
42411;BME280;28056;51.112;0.984;2023-11-18T00:31:03;101155.41;;;9.89;96.72
42411;BME280;28056;51.112;0.984;2023-11-18T00:33:31;101155.58;;;9.92;97.69
42411;BME280;28056;51.112;0.984;2023-11-18T00:35:58;101155.27;;;10.33;95.92
42411;BME280;28056;51.112;0.984;2023-11-18T00:38:25;101147.23;;;10.58;93.62
42411;BME280;28056;51.112;0.984;2023-11-18T00:40:53;101142.57;;;9.77;95.80
42411;BME280;28056;51.112;0.984;2023-11-18T00:43:20;101138.65;;;10.17;95.48
42411;BME280;28056;51.112;0.984;2023-11-18T00:45:48;101141.56;;;10.00;94.84
42411;BME280;28056;51.112;0.984;2023-11-18T00:48:15;101143.32;;;10.62;93.01
42411;BME280;28056;51.112;0.984;2023-11-18T00:50:42;101134.51;;;11.05;89.16
42411;BME280;28056;51.112;0.984;2023-11-18T00:53:09;101123.83;;;10.64;92.11
42411;BME280;28056;51.112;0.984;2023-11-18T00:55:36;101113.18;;;10.68;89.67
42411;BME280;28056;51.112;0.984;2023-11-18T00:58:03;101111.10;;;10.82;88.78
42411;BME280;28056;51.112;0.984;2023-11-18T01:00:30;101103.78;;;10.80;88.37
42411;BME280;28056;51.112;0.984;2023-11-18T01:04:48;101090.05;;;11.53;82.71
42411;BME280;28056;51.112;0.984;2023-11-18T01:07:16;101089.52;;;11.96;81.23
42411;BME280;28056;51.112;0.984;2023-11-18T01:09:43;101085.54;;;12.07;78.53
42411;BME280;28056;51.112;0.984;2023-11-18T01:12:11;101079.43;;;12.10;78.45
42411;BME280;28056;51.112;0.984;2023-11-18T01:14:38;101072.33;;;12.23;77.70
42411;BME280;28056;51.112;0.984;2023-11-18T01:17:05;101072.36;;;12.49;77.36
42411;BME280;28056;51.112;0.984;2023-11-18T01:19:33;101067.87;;;12.48;77.04
42411;BME280;28056;51.112;0.984;2023-11-18T01:22:01;101063.74;;;12.19;76.81
42411;BME280;28056;51.112;0.984;2023-11-18T01:24:29;101061.22;;;12.34;76.60
42411;BME280;28056;51.112;0.984;2023-11-18T01:26:57;101055.22;;;12.02;76.14
42411;BME280;28056;51.112;0.984;2023-11-18T01:29:24;101049.09;;;11.88;76.16
42411;BME280;28056;51.112;0.984;2023-11-18T01:31:51;101040.98;;;11.57;77.34
42411;BME280;28056;51.112;0.984;2023-11-18T01:34:18;101033.11;;;11.66;77.72
42411;BME280;28056;51.112;0.984;2023-11-18T01:36:45;101033.44;;;11.16;78.69
42411;BME280;28056;51.112;0.984;2023-11-18T01:39:12;101038.06;;;11.38;77.89
42411;BME280;28056;51.112;0.984;2023-11-18T01:41:40;101034.47;;;11.36;78.97
42411;BME280;28056;51.112;0.984;2023-11-18T01:44:08;101024.85;;;11.40;78.96
42411;BME280;28056;51.112;0.984;2023-11-18T01:46:35;101020.19;;;11.42;80.06
42411;BME280;28056;51.112;0.984;2023-11-18T01:49:04;101016.25;;;11.50;80.34
42411;BME280;28056;51.112;0.984;2023-11-18T01:51:31;101015.62;;;11.95;79.75
42411;BME280;28056;51.112;0.984;2023-11-18T01:54:00;101010.02;;;11.30;80.90
42411;BME280;28056;51.112;0.984;2023-11-18T01:56:28;100996.76;;;10.66;82.80
42411;BME280;28056;51.112;0.984;2023-11-18T01:58:56;101000.56;;;11.45;84.71
42411;BME280;28056;51.112;0.984;2023-11-18T02:01:23;100998.08;;;11.33;85.57
42411;BME280;28056;51.112;0.984;2023-11-18T02:03:51;100994.12;;;11.22;85.27
42411;BME280;28056;51.112;0.984;2023-11-18T02:06:19;100991.40;;;11.65;84.86
42411;BME280;28056;51.112;0.984;2023-11-18T02:08:47;100984.52;;;11.55;84.59
42411;BME280;28056;51.112;0.984;2023-11-18T02:11:24;100974.37;;;10.87;85.68
42411;BME280;28056;51.112;0.984;2023-11-18T02:13:55;100964.15;;;11.37;84.99
42411;BME280;28056;51.112;0.984;2023-11-18T02:16:26;100953.09;;;11.24;87.37
42411;BME280;28056;51.112;0.984;2023-11-18T02:18:55;100958.10;;;11.44;88.17
42411;BME280;28056;51.112;0.984;2023-11-18T02:21:23;100968.45;;;11.62;88.42
42411;BME280;28056;51.112;0.984;2023-11-18T02:23:51;100972.66;;;11.85;86.88
42411;BME280;28056;51.112;0.984;2023-11-18T02:26:23;100975.19;;;11.89;86.79
42411;BME280;28056;51.112;0.984;2023-11-18T02:28:50;100973.39;;;11.36;89.85
42411;BME280;28056;51.112;0.984;2023-11-18T02:31:30;100975.66;;;10.70;97.31
42411;BME280;28056;51.112;0.984;2023-11-18T02:34:04;100972.87;;;10.54;100.00
42411;BME280;28056;51.112;0.984;2023-11-18T02:36:40;100953.98;;;10.44;100.00
42411;BME280;28056;51.112;0.984;2023-11-18T02:39:19;100948.31;;;10.03;100.00
42411;BME280;28056;51.112;0.984;2023-11-18T02:41:51;100955.92;;;9.68;100.00
42411;BME280;28056;51.112;0.984;2023-11-18T02:44:20;100958.08;;;9.83;100.00
42411;BME280;28056;51.112;0.984;2023-11-18T02:46:49;100952.84;;;10.64;100.00
42411;BME280;28056;51.112;0.984;2023-11-18T02:49:16;100949.08;;;10.74;100.00
42411;BME280;28056;51.112;0.984;2023-11-18T02:51:44;100946.75;;;10.55;100.00
42411;BME280;28056;51.112;0.984;2023-11-18T02:54:11;100931.66;;;10.70;100.00
42411;BME280;28056;51.112;0.984;2023-11-18T02:56:38;100933.99;;;10.06;100.00
42411;BME280;28056;51.112;0.984;2023-11-18T02:59:06;100932.73;;;10.06;100.00
42411;BME280;28056;51.112;0.984;2023-11-18T03:01:34;100930.06;;;10.26;100.00
42411;BME280;28056;51.112;0.984;2023-11-18T03:04:01;100915.83;;;10.32;100.00
42411;BME280;28056;51.112;0.984;2023-11-18T03:06:29;100916.37;;;9.92;100.00
42411;BME280;28056;51.112;0.984;2023-11-18T03:08:57;100919.48;;;9.95;100.00
42411;BME280;28056;51.112;0.984;2023-11-18T03:11:25;100917.58;;;9.98;100.00
42411;BME280;28056;51.112;0.984;2023-11-18T03:13:52;100910.25;;;9.84;100.00
42411;BME280;28056;51.112;0.984;2023-11-18T03:16:19;100905.82;;;10.34;100.00
42411;BME280;28056;51.112;0.984;2023-11-18T03:18:46;100897.00;;;10.29;100.00
42411;BME280;28056;51.112;0.984;2023-11-18T03:21:14;100895.88;;;9.98;100.00
42411;BME280;28056;51.112;0.984;2023-11-18T03:23:42;100900.77;;;10.42;100.00
42411;BME280;28056;51.112;0.984;2023-11-18T03:26:10;100900.52;;;10.43;100.00
42411;BME280;28056;51.112;0.984;2023-11-18T03:28:37;100894.22;;;10.37;100.00
42411;BME280;28056;51.112;0.984;2023-11-18T03:31:06;100886.56;;;10.01;100.00
42411;BME280;28056;51.112;0.984;2023-11-18T03:33:34;100879.99;;;9.77;100.00
42411;BME280;28056;51.112;0.984;2023-11-18T03:36:01;100871.86;;;9.93;100.00
42411;BME280;28056;51.112;0.984;2023-11-18T03:38:29;100857.63;;;10.09;100.00
42411;BME280;28056;51.112;0.984;2023-11-18T03:40:56;100837.46;;;9.96;100.00
42411;BME280;28056;51.112;0.984;2023-11-18T03:43:24;100831.30;;;10.14;100.00
42411;BME280;28056;51.112;0.984;2023-11-18T03:45:52;100822.31;;;9.87;100.00
42411;BME280;28056;51.112;0.984;2023-11-18T03:48:19;100808.72;;;10.15;100.00
42411;BME280;28056;51.112;0.984;2023-11-18T03:50:46;100797.61;;;9.98;100.00
42411;BME280;28056;51.112;0.984;2023-11-18T03:53:13;100788.07;;;9.41;100.00
42411;BME280;28056;51.112;0.984;2023-11-18T03:55:40;100784.80;;;9.79;100.00
42411;BME280;28056;51.112;0.984;2023-11-18T03:58:07;100793.68;;;9.78;100.00
42411;BME280;28056;51.112;0.984;2023-11-18T04:00:35;100789.03;;;9.80;100.00
42411;BME280;28056;51.112;0.984;2023-11-18T04:03:02;100781.75;;;10.07;100.00
42411;BME280;28056;51.112;0.984;2023-11-18T04:05:29;100789.55;;;9.79;100.00
42411;BME280;28056;51.112;0.984;2023-11-18T04:07:56;100789.05;;;10.03;100.00
42411;BME280;28056;51.112;0.984;2023-11-18T04:10:23;100794.04;;;10.46;100.00
42411;BME280;28056;51.112;0.984;2023-11-18T04:12:50;100790.77;;;10.26;100.00
42411;BME280;28056;51.112;0.984;2023-11-18T04:15:17;100798.05;;;10.16;100.00
42411;BME280;28056;51.112;0.984;2023-11-18T04:17:45;100792.39;;;9.54;100.00
42411;BME280;28056;51.112;0.984;2023-11-18T04:20:12;100787.06;;;10.10;100.00
42411;BME280;28056;51.112;0.984;2023-11-18T04:22:40;100783.73;;;10.45;100.00
42411;BME280;28056;51.112;0.984;2023-11-18T04:25:08;100779.45;;;10.32;100.00
42411;BME280;28056;51.112;0.984;2023-11-18T04:27:36;100772.11;;;10.05;100.00
42411;BME280;28056;51.112;0.984;2023-11-18T04:30:04;100773.00;;;10.31;100.00
42411;BME280;28056;51.112;0.984;2023-11-18T04:32:32;100767.22;;;10.31;100.00
42411;BME280;28056;51.112;0.984;2023-11-18T04:34:59;100756.40;;;9.68;100.00
42411;BME280;28056;51.112;0.984;2023-11-18T04:37:27;100758.92;;;9.83;100.00
42411;BME280;28056;51.112;0.984;2023-11-18T04:39:54;100751.21;;;9.82;100.00
42411;BME280;28056;51.112;0.984;2023-11-18T04:42:21;100746.02;;;9.57;100.00
42411;BME280;28056;51.112;0.984;2023-11-18T04:44:48;100748.94;;;9.91;100.00
42411;BME280;28056;51.112;0.984;2023-11-18T04:47:15;100752.86;;;9.60;100.00
42411;BME280;28056;51.112;0.984;2023-11-18T04:49:43;100754.05;;;9.46;100.00
42411;BME280;28056;51.112;0.984;2023-11-18T04:52:10;100750.40;;;9.22;100.00
42411;BME280;28056;51.112;0.984;2023-11-18T04:54:38;100738.02;;;9.38;100.00
42411;BME280;28056;51.112;0.984;2023-11-18T04:57:05;100728.48;;;9.33;100.00
42411;BME280;28056;51.112;0.984;2023-11-18T04:59:33;100722.39;;;9.72;100.00
42411;BME280;28056;51.112;0.984;2023-11-18T05:02:01;100727.62;;;9.73;100.00
42411;BME280;28056;51.112;0.984;2023-11-18T05:04:29;100729.41;;;9.44;100.00
42411;BME280;28056;51.112;0.984;2023-11-18T05:06:57;100720.43;;;9.54;100.00
42411;BME280;28056;51.112;0.984;2023-11-18T05:09:24;100710.82;;;9.64;100.00
42411;BME280;28056;51.112;0.984;2023-11-18T05:11:51;100695.25;;;9.81;100.00
42411;BME280;28056;51.112;0.984;2023-11-18T05:14:18;100691.64;;;10.02;100.00
42411;BME280;28056;51.112;0.984;2023-11-18T05:16:47;100668.97;;;10.13;100.00
42411;BME280;28056;51.112;0.984;2023-11-18T05:19:14;100665.70;;;10.55;100.00
42411;BME280;28056;51.112;0.984;2023-11-18T05:21:41;100658.03;;;9.68;100.00
42411;BME280;28056;51.112;0.984;2023-11-18T05:24:09;100659.75;;;10.03;100.00
42411;BME280;28056;51.112;0.984;2023-11-18T05:26:37;100650.60;;;9.87;100.00
42411;BME280;28056;51.112;0.984;2023-11-18T05:29:05;100631.64;;;9.90;100.00
42411;BME280;28056;51.112;0.984;2023-11-18T05:31:32;100619.04;;;9.97;100.00
42411;BME280;28056;51.112;0.984;2023-11-18T05:34:00;100616.41;;;10.00;100.00
42411;BME280;28056;51.112;0.984;2023-11-18T05:36:28;100641.87;;;9.87;100.00
42411;BME280;28056;51.112;0.984;2023-11-18T05:38:56;100657.70;;;10.23;100.00
42411;BME280;28056;51.112;0.984;2023-11-18T05:41:23;100649.61;;;9.93;100.00
42411;BME280;28056;51.112;0.984;2023-11-18T05:43:51;100637.97;;;10.22;100.00
42411;BME280;28056;51.112;0.984;2023-11-18T05:46:19;100643.23;;;9.97;100.00
42411;BME280;28056;51.112;0.984;2023-11-18T05:48:46;100635.58;;;9.86;100.00
42411;BME280;28056;51.112;0.984;2023-11-18T05:51:18;100627.56;;;9.92;100.00
42411;BME280;28056;51.112;0.984;2023-11-18T05:53:46;100618.58;;;9.92;100.00
42411;BME280;28056;51.112;0.984;2023-11-18T05:56:14;100617.87;;;9.57;100.00
42411;BME280;28056;51.112;0.984;2023-11-18T05:58:42;100612.80;;;9.91;100.00
42411;BME280;28056;51.112;0.984;2023-11-18T06:01:10;100604.62;;;9.51;100.00
42411;BME280;28056;51.112;0.984;2023-11-18T06:03:38;100606.62;;;9.48;100.00
42411;BME280;28056;51.112;0.984;2023-11-18T06:06:07;100601.02;;;9.37;100.00
42411;BME280;28056;51.112;0.984;2023-11-18T06:08:35;100591.49;;;9.48;100.00
42411;BME280;28056;51.112;0.984;2023-11-18T06:11:03;100586.40;;;9.24;100.00
42411;BME280;28056;51.112;0.984;2023-11-18T06:13:30;100570.35;;;9.23;100.00
42411;BME280;28056;51.112;0.984;2023-11-18T06:15:57;100586.31;;;9.08;100.00
42411;BME280;28056;51.112;0.984;2023-11-18T06:18:25;100575.53;;;9.36;100.00
42411;BME280;28056;51.112;0.984;2023-11-18T06:20:52;100568.62;;;9.17;100.00
42411;BME280;28056;51.112;0.984;2023-11-18T06:23:20;100561.88;;;9.08;100.00
42411;BME280;28056;51.112;0.984;2023-11-18T06:25:47;100560.40;;;9.26;100.00
42411;BME280;28056;51.112;0.984;2023-11-18T06:28:14;100565.86;;;9.46;100.00
42411;BME280;28056;51.112;0.984;2023-11-18T06:30:41;100554.30;;;9.55;100.00
42411;BME280;28056;51.112;0.984;2023-11-18T06:33:08;100553.48;;;9.37;100.00
42411;BME280;28056;51.112;0.984;2023-11-18T06:35:37;100567.75;;;9.40;100.00
42411;BME280;28056;51.112;0.984;2023-11-18T06:38:05;100554.27;;;9.89;100.00
42411;BME280;28056;51.112;0.984;2023-11-18T06:40:32;100556.82;;;9.34;100.00
42411;BME280;28056;51.112;0.984;2023-11-18T06:42:58;100546.81;;;9.91;100.00
42411;BME280;28056;51.112;0.984;2023-11-18T06:45:25;100536.15;;;9.73;100.00
42411;BME280;28056;51.112;0.984;2023-11-18T06:47:53;100540.23;;;10.08;100.00
42411;BME280;28056;51.112;0.984;2023-11-18T06:50:20;100532.43;;;10.04;100.00
42411;BME280;28056;51.112;0.984;2023-11-18T06:52:48;100532.94;;;10.21;100.00
42411;BME280;28056;51.112;0.984;2023-11-18T06:55:15;100529.19;;;9.81;100.00
42411;BME280;28056;51.112;0.984;2023-11-18T06:57:42;100526.69;;;7.90;100.00
42411;BME280;28056;51.112;0.984;2023-11-18T07:00:10;100512.91;;;8.13;100.00
42411;BME280;28056;51.112;0.984;2023-11-18T07:02:38;100528.06;;;7.77;100.00
42411;BME280;28056;51.112;0.984;2023-11-18T07:05:06;100513.94;;;8.31;100.00
42411;BME280;28056;51.112;0.984;2023-11-18T07:07:33;100513.35;;;8.19;100.00
42411;BME280;28056;51.112;0.984;2023-11-18T07:10:00;100517.09;;;7.63;100.00
42411;BME280;28056;51.112;0.984;2023-11-18T07:12:28;100514.53;;;8.02;100.00
42411;BME280;28056;51.112;0.984;2023-11-18T07:14:56;100515.31;;;7.96;100.00
42411;BME280;28056;51.112;0.984;2023-11-18T07:17:23;100520.91;;;7.92;100.00
42411;BME280;28056;51.112;0.984;2023-11-18T07:19:50;100511.88;;;8.27;100.00
42411;BME280;28056;51.112;0.984;2023-11-18T07:22:17;100523.40;;;8.21;100.00
42411;BME280;28056;51.112;0.984;2023-11-18T07:24:44;100511.10;;;8.16;100.00
42411;BME280;28056;51.112;0.984;2023-11-18T07:27:11;100509.19;;;7.83;100.00
42411;BME280;28056;51.112;0.984;2023-11-18T07:29:39;100480.65;;;8.50;100.00
42411;BME280;28056;51.112;0.984;2023-11-18T07:32:06;100503.96;;;8.61;100.00
42411;BME280;28056;51.112;0.984;2023-11-18T07:34:34;100503.24;;;8.12;100.00
42411;BME280;28056;51.112;0.984;2023-11-18T07:37:00;100504.91;;;8.13;100.00
42411;BME280;28056;51.112;0.984;2023-11-18T07:39:27;100498.05;;;8.20;100.00
42411;BME280;28056;51.112;0.984;2023-11-18T07:41:54;100513.61;;;8.67;100.00
42411;BME280;28056;51.112;0.984;2023-11-18T07:44:21;100515.07;;;8.60;100.00
42411;BME280;28056;51.112;0.984;2023-11-18T07:46:49;100496.48;;;8.22;100.00
42411;BME280;28056;51.112;0.984;2023-11-18T07:49:16;100484.41;;;7.97;100.00
42411;BME280;28056;51.112;0.984;2023-11-18T07:51:43;100470.01;;;8.57;100.00
42411;BME280;28056;51.112;0.984;2023-11-18T07:54:10;100479.83;;;8.24;100.00
42411;BME280;28056;51.112;0.984;2023-11-18T07:56:38;100480.01;;;8.48;100.00
42411;BME280;28056;51.112;0.984;2023-11-18T07:59:07;100480.19;;;8.14;100.00
42411;BME280;28056;51.112;0.984;2023-11-18T08:01:34;100479.14;;;8.19;100.00
42411;BME280;28056;51.112;0.984;2023-11-18T08:04:01;100469.80;;;8.31;100.00
42411;BME280;28056;51.112;0.984;2023-11-18T08:06:29;100459.48;;;8.34;100.00
42411;BME280;28056;51.112;0.984;2023-11-18T08:08:56;100463.24;;;8.55;100.00
42411;BME280;28056;51.112;0.984;2023-11-18T08:11:24;100463.66;;;8.36;100.00
42411;BME280;28056;51.112;0.984;2023-11-18T08:13:52;100467.04;;;8.35;100.00
42411;BME280;28056;51.112;0.984;2023-11-18T08:16:19;100463.12;;;8.40;100.00
42411;BME280;28056;51.112;0.984;2023-11-18T08:18:46;100457.64;;;8.70;100.00
42411;BME280;28056;51.112;0.984;2023-11-18T08:21:13;100457.11;;;8.50;100.00
42411;BME280;28056;51.112;0.984;2023-11-18T08:23:40;100452.33;;;8.63;100.00
42411;BME280;28056;51.112;0.984;2023-11-18T08:26:07;100452.16;;;8.86;100.00
42411;BME280;28056;51.112;0.984;2023-11-18T08:28:34;100453.77;;;8.51;100.00
42411;BME280;28056;51.112;0.984;2023-11-18T08:31:02;100443.25;;;8.79;100.00
42411;BME280;28056;51.112;0.984;2023-11-18T08:33:29;100432.60;;;8.85;100.00
42411;BME280;28056;51.112;0.984;2023-11-18T08:35:56;100425.74;;;8.79;100.00
42411;BME280;28056;51.112;0.984;2023-11-18T08:38:23;100412.30;;;8.61;100.00
42411;BME280;28056;51.112;0.984;2023-11-18T08:40:50;100413.37;;;9.44;100.00
42411;BME280;28056;51.112;0.984;2023-11-18T08:43:18;100404.07;;;8.61;100.00
42411;BME280;28056;51.112;0.984;2023-11-18T08:45:45;100401.61;;;8.38;100.00
42411;BME280;28056;51.112;0.984;2023-11-18T08:48:13;100401.53;;;9.34;100.00
42411;BME280;28056;51.112;0.984;2023-11-18T08:50:40;100388.91;;;9.33;100.00
42411;BME280;28056;51.112;0.984;2023-11-18T08:53:08;100378.15;;;9.55;100.00
42411;BME280;28056;51.112;0.984;2023-11-18T08:55:36;100379.00;;;8.78;100.00
42411;BME280;28056;51.112;0.984;2023-11-18T08:58:03;100367.40;;;9.79;100.00
42411;BME280;28056;51.112;0.984;2023-11-18T09:00:32;100365.52;;;8.99;100.00
42411;BME280;28056;51.112;0.984;2023-11-18T09:02:59;100356.82;;;9.42;100.00
42411;BME280;28056;51.112;0.984;2023-11-18T09:05:27;100351.71;;;9.44;100.00
42411;BME280;28056;51.112;0.984;2023-11-18T09:07:54;100351.44;;;9.30;100.00
42411;BME280;28056;51.112;0.984;2023-11-18T09:10:22;100346.46;;;9.78;100.00
42411;BME280;28056;51.112;0.984;2023-11-18T09:12:50;100347.36;;;9.69;100.00
42411;BME280;28056;51.112;0.984;2023-11-18T09:15:17;100343.27;;;9.51;100.00
42411;BME280;28056;51.112;0.984;2023-11-18T09:17:43;100334.69;;;9.59;100.00
42411;BME280;28056;51.112;0.984;2023-11-18T09:20:11;100330.48;;;9.31;100.00
42411;BME280;28056;51.112;0.984;2023-11-18T09:22:39;100319.73;;;9.79;100.00
42411;BME280;28056;51.112;0.984;2023-11-18T09:25:07;100308.71;;;9.81;100.00
42411;BME280;28056;51.112;0.984;2023-11-18T09:27:34;100284.79;;;9.74;100.00
42411;BME280;28056;51.112;0.984;2023-11-18T09:30:01;100293.54;;;9.87;100.00
42411;BME280;28056;51.112;0.984;2023-11-18T09:32:30;100306.69;;;9.99;100.00
42411;BME280;28056;51.112;0.984;2023-11-18T09:34:57;100314.88;;;10.21;100.00
42411;BME280;28056;51.112;0.984;2023-11-18T09:37:25;100318.43;;;9.67;100.00
42411;BME280;28056;51.112;0.984;2023-11-18T09:39:53;100311.67;;;10.10;100.00
42411;BME280;28056;51.112;0.984;2023-11-18T09:42:20;100307.10;;;10.09;100.00
42411;BME280;28056;51.112;0.984;2023-11-18T09:44:48;100297.01;;;9.76;100.00
42411;BME280;28056;51.112;0.984;2023-11-18T09:47:17;100300.26;;;10.32;100.00
42411;BME280;28056;51.112;0.984;2023-11-18T09:49:45;100276.54;;;10.31;100.00
42411;BME280;28056;51.112;0.984;2023-11-18T09:52:17;100275.13;;;10.26;100.00
42411;BME280;28056;51.112;0.984;2023-11-18T09:54:54;100277.72;;;10.19;100.00
42411;BME280;28056;51.112;0.984;2023-11-18T09:57:31;100286.34;;;10.79;100.00
42411;BME280;28056;51.112;0.984;2023-11-18T10:00:02;100285.56;;;10.01;100.00
42411;BME280;28056;51.112;0.984;2023-11-18T10:02:30;100283.63;;;10.35;100.00
42411;BME280;28056;51.112;0.984;2023-11-18T10:04:57;100265.87;;;10.07;100.00
42411;BME280;28056;51.112;0.984;2023-11-18T10:07:27;100266.07;;;10.39;100.00
42411;BME280;28056;51.112;0.984;2023-11-18T10:09:57;100267.63;;;10.43;100.00
42411;BME280;28056;51.112;0.984;2023-11-18T10:12:24;100256.59;;;10.24;100.00
42411;BME280;28056;51.112;0.984;2023-11-18T10:14:52;100262.95;;;10.63;100.00
42411;BME280;28056;51.112;0.984;2023-11-18T10:17:20;100267.09;;;10.59;100.00
42411;BME280;28056;51.112;0.984;2023-11-18T10:19:52;100255.22;;;10.86;100.00
42411;BME280;28056;51.112;0.984;2023-11-18T10:22:22;100260.03;;;10.74;100.00
42411;BME280;28056;51.112;0.984;2023-11-18T10:24:50;100249.81;;;10.96;100.00
42411;BME280;28056;51.112;0.984;2023-11-18T10:27:17;100245.74;;;10.77;100.00
42411;BME280;28056;51.112;0.984;2023-11-18T10:29:45;100240.78;;;10.50;100.00
42411;BME280;28056;51.112;0.984;2023-11-18T10:32:15;100247.13;;;10.94;100.00
42411;BME280;28056;51.112;0.984;2023-11-18T10:34:43;100234.14;;;11.06;100.00
42411;BME280;28056;51.112;0.984;2023-11-18T10:37:13;100228.54;;;10.57;100.00
42411;BME280;28056;51.112;0.984;2023-11-18T10:39:41;100228.99;;;10.66;100.00
42411;BME280;28056;51.112;0.984;2023-11-18T10:42:09;100240.11;;;10.84;100.00
42411;BME280;28056;51.112;0.984;2023-11-18T10:44:36;100234.86;;;10.87;100.00
42411;BME280;28056;51.112;0.984;2023-11-18T10:47:04;100240.01;;;10.96;100.00
42411;BME280;28056;51.112;0.984;2023-11-18T10:49:32;100241.49;;;11.41;100.00
42411;BME280;28056;51.112;0.984;2023-11-18T10:52:01;100243.98;;;11.36;100.00
42411;BME280;28056;51.112;0.984;2023-11-18T10:54:29;100247.83;;;11.66;100.00
42411;BME280;28056;51.112;0.984;2023-11-18T10:56:56;100242.48;;;11.41;100.00
42411;BME280;28056;51.112;0.984;2023-11-18T10:59:28;100242.09;;;10.97;100.00
42411;BME280;28056;51.112;0.984;2023-11-18T11:01:55;100227.70;;;11.38;100.00
42411;BME280;28056;51.112;0.984;2023-11-18T11:04:23;100232.49;;;11.61;100.00
42411;BME280;28056;51.112;0.984;2023-11-18T11:06:51;100228.86;;;11.74;100.00
42411;BME280;28056;51.112;0.984;2023-11-18T11:09:18;100225.08;;;11.57;100.00
42411;BME280;28056;51.112;0.984;2023-11-18T11:11:49;100221.62;;;11.84;100.00
42411;BME280;28056;51.112;0.984;2023-11-18T11:14:16;100210.32;;;10.95;100.00
42411;BME280;28056;51.112;0.984;2023-11-18T11:16:52;100200.84;;;11.59;100.00
42411;BME280;28056;51.112;0.984;2023-11-18T11:19:25;100197.01;;;11.75;100.00
42411;BME280;28056;51.112;0.984;2023-11-18T11:22:00;100188.50;;;11.47;100.00
42411;BME280;28056;51.112;0.984;2023-11-18T11:24:34;100190.57;;;11.50;100.00
42411;BME280;28056;51.112;0.984;2023-11-18T11:27:12;100192.33;;;11.45;100.00
42411;BME280;28056;51.112;0.984;2023-11-18T11:29:52;100177.27;;;10.74;100.00
42411;BME280;28056;51.112;0.984;2023-11-18T11:32:26;100164.40;;;11.91;100.00
42411;BME280;28056;51.112;0.984;2023-11-18T11:35:01;100163.98;;;11.53;100.00
42411;BME280;28056;51.112;0.984;2023-11-18T11:37:29;100187.41;;;11.25;100.00
42411;BME280;28056;51.112;0.984;2023-11-18T11:39:57;100165.38;;;11.46;100.00
42411;BME280;28056;51.112;0.984;2023-11-18T11:42:26;100153.32;;;11.70;100.00
42411;BME280;28056;51.112;0.984;2023-11-18T11:44:55;100164.10;;;11.60;100.00
42411;BME280;28056;51.112;0.984;2023-11-18T11:47:23;100155.03;;;11.74;100.00
42411;BME280;28056;51.112;0.984;2023-11-18T11:49:55;100154.99;;;12.14;100.00
42411;BME280;28056;51.112;0.984;2023-11-18T11:52:30;100159.16;;;11.20;100.00
42411;BME280;28056;51.112;0.984;2023-11-18T11:55:07;100166.94;;;12.38;100.00
42411;BME280;28056;51.112;0.984;2023-11-18T11:57:38;100170.09;;;11.40;100.00
42411;BME280;28056;51.112;0.984;2023-11-18T12:00:09;100147.55;;;11.03;100.00
42411;BME280;28056;51.112;0.984;2023-11-18T12:02:37;100146.04;;;12.24;100.00
42411;BME280;28056;51.112;0.984;2023-11-18T12:05:05;100162.47;;;12.39;100.00
42411;BME280;28056;51.112;0.984;2023-11-18T12:07:33;100186.80;;;12.27;100.00
42411;BME280;28056;51.112;0.984;2023-11-18T12:10:01;100164.63;;;11.89;100.00
42411;BME280;28056;51.112;0.984;2023-11-18T12:12:29;100147.49;;;12.20;100.00
42411;BME280;28056;51.112;0.984;2023-11-18T12:14:58;100149.68;;;12.40;100.00
42411;BME280;28056;51.112;0.984;2023-11-18T12:17:25;100140.39;;;13.00;100.00
42411;BME280;28056;51.112;0.984;2023-11-18T12:19:53;100133.12;;;12.66;100.00
42411;BME280;28056;51.112;0.984;2023-11-18T12:22:22;100133.13;;;12.32;100.00
42411;BME280;28056;51.112;0.984;2023-11-18T12:25:29;100134.11;;;12.12;100.00
42411;BME280;28056;51.112;0.984;2023-11-18T12:27:57;100126.03;;;12.40;100.00
42411;BME280;28056;51.112;0.984;2023-11-18T12:30:42;100121.91;;;11.88;100.00
42411;BME280;28056;51.112;0.984;2023-11-18T12:33:10;100112.48;;;12.65;100.00
42411;BME280;28056;51.112;0.984;2023-11-18T12:36:06;100096.48;;;12.54;100.00
42411;BME280;28056;51.112;0.984;2023-11-18T12:40:58;100098.72;;;12.98;100.00
42411;BME280;28056;51.112;0.984;2023-11-18T12:43:45;100114.74;;;12.03;100.00
42411;BME280;28056;51.112;0.984;2023-11-18T12:46:41;100098.16;;;12.64;100.00
42411;BME280;28056;51.112;0.984;2023-11-18T12:49:15;100112.26;;;12.39;100.00
42411;BME280;28056;51.112;0.984;2023-11-18T12:51:43;100121.23;;;11.63;100.00
42411;BME280;28056;51.112;0.984;2023-11-18T12:54:12;100091.69;;;12.77;100.00
42411;BME280;28056;51.112;0.984;2023-11-18T12:56:40;100086.57;;;12.74;100.00